createdAt,value
2019-05-18T00:00:29.011Z,69.20
2019-05-18T00:02:57.489Z,69.12
2019-05-18T00:05:26.019Z,69.41
2019-05-18T00:07:54.517Z,69.55
2019-05-18T00:10:23.017Z,69.47
2019-05-18T00:12:51.500Z,69.57
2019-05-18T00:15:19.993Z,69.39
2019-05-18T00:17:48.476Z,69.42
2019-05-18T00:20:17.041Z,69.37
2019-05-18T00:22:45.531Z,69.63
2019-05-18T00:25:14.298Z,69.57
2019-05-18T00:27:42.812Z,69.73
2019-05-18T00:30:11.354Z,69.95
2019-05-18T00:32:39.833Z,70.06
2019-05-18T00:35:08.633Z,69.95
2019-05-18T00:37:37.150Z,70.07
2019-05-18T00:40:06.583Z,70.13
2019-05-18T00:42:35.072Z,70.22
2019-05-18T00:45:03.613Z,70.28
2019-05-18T00:47:40.956Z,70.42
2019-05-18T00:50:02.553Z,70.56
2019-05-18T00:52:31.052Z,70.65
2019-05-18T00:54:59.552Z,70.68
2019-05-18T00:57:28.138Z,70.69
2019-05-18T00:59:56.642Z,70.85
2019-05-18T01:02:25.134Z,70.68
2019-05-18T01:04:53.655Z,70.95
2019-05-18T01:07:22.168Z,70.83
2019-05-18T01:09:50.910Z,70.92
2019-05-18T01:12:19.407Z,70.77
2019-05-18T01:14:47.905Z,70.80
2019-05-18T01:17:16.707Z,70.87
2019-05-18T01:19:45.177Z,71.24
2019-05-18T01:22:13.688Z,71.06
2019-05-18T01:24:42.199Z,71.04
2019-05-18T01:27:10.704Z,71.41
2019-05-18T01:29:39.424Z,71.56
2019-05-18T01:32:07.932Z,71.39
2019-05-18T01:34:36.775Z,71.70
2019-05-18T01:37:05.253Z,71.64
2019-05-18T01:39:33.764Z,71.64
2019-05-18T01:42:02.338Z,71.73
2019-05-18T01:44:30.791Z,71.64
2019-05-18T01:46:59.272Z,71.66
2019-05-18T01:49:27.778Z,71.82
2019-05-18T01:51:56.308Z,71.79
2019-05-18T01:54:24.830Z,71.98
2019-05-18T01:56:53.301Z,71.98
2019-05-18T01:59:21.789Z,72.10
2019-05-18T02:01:50.282Z,72.18
2019-05-18T02:04:18.751Z,72.19
2019-05-18T02:06:47.245Z,72.35
2019-05-18T02:09:15.737Z,72.35
2019-05-18T02:11:44.217Z,72.19
2019-05-18T02:14:12.688Z,72.29
2019-05-18T02:16:41.462Z,72.15
2019-05-18T02:19:09.962Z,72.05
2019-05-18T02:21:38.438Z,72.05
2019-05-18T02:24:07.213Z,72.24
2019-05-18T02:26:35.684Z,72.37
2019-05-18T02:29:04.228Z,72.34
2019-05-18T02:31:32.692Z,72.18
2019-05-18T02:34:01.184Z,72.41
2019-05-18T02:36:29.956Z,72.51
2019-05-18T02:38:58.446Z,72.80
2019-05-18T02:41:26.982Z,72.81
2019-05-18T02:43:55.464Z,72.82
2019-05-18T02:46:23.937Z,73.14
2019-05-18T02:48:52.507Z,73.12
2019-05-18T02:51:21.018Z,73.18
2019-05-18T02:53:49.518Z,73.37
2019-05-18T02:56:18.013Z,73.19
2019-05-18T02:58:46.564Z,73.28
2019-05-18T03:01:15.086Z,73.24
2019-05-18T03:03:43.579Z,73.17
2019-05-18T03:06:12.077Z,73.11
2019-05-18T03:08:40.898Z,73.10
2019-05-18T03:11:09.716Z,73.24
2019-05-18T03:13:38.164Z,73.17
2019-05-18T03:16:06.638Z,73.05
2019-05-18T03:18:35.123Z,73.14
2019-05-18T03:21:03.772Z,73.08
2019-05-18T03:23:32.204Z,73.20
2019-05-18T03:26:00.698Z,73.36
2019-05-18T03:28:29.223Z,73.59
2019-05-18T03:30:57.708Z,73.55
2019-05-18T03:33:29.333Z,73.67
2019-05-18T03:35:56.415Z,73.68
2019-05-18T03:38:24.908Z,73.59
2019-05-18T03:40:53.705Z,73.62
2019-05-18T03:43:22.166Z,73.73
2019-05-18T03:45:50.668Z,73.66
2019-05-18T03:48:19.453Z,73.86
2019-05-18T03:50:47.958Z,73.83
2019-05-18T03:53:18.341Z,73.83
2019-05-18T03:55:46.691Z,73.90
2019-05-18T03:58:15.180Z,73.80
2019-05-18T04:00:44.408Z,73.89
2019-05-18T04:03:12.908Z,73.82
2019-05-18T04:05:41.849Z,74.02
2019-05-18T04:08:12.728Z,74.17
2019-05-18T04:10:40.551Z,74.08
2019-05-18T04:13:09.305Z,74.15
2019-05-18T04:15:37.789Z,74.13
2019-05-18T04:18:06.265Z,74.22
2019-05-18T04:20:34.768Z,74.23
2019-05-18T04:23:03.257Z,74.14
2019-05-18T04:25:31.744Z,74.05
2019-05-18T04:28:00.309Z,74.16
2019-05-18T04:30:28.802Z,74.07
2019-05-18T04:32:57.546Z,74.08
2019-05-18T04:35:26.030Z,74.17
2019-05-18T04:37:54.873Z,74.14
2019-05-18T04:40:23.706Z,74.46
2019-05-18T04:42:52.448Z,74.41
2019-05-18T04:45:20.941Z,74.35
2019-05-18T04:47:49.484Z,74.28
2019-05-18T04:50:18.230Z,74.56
2019-05-18T04:52:46.741Z,74.49
2019-05-18T04:55:15.532Z,74.46
2019-05-18T04:57:44.028Z,74.35
2019-05-18T05:00:12.801Z,74.56
2019-05-18T05:02:41.280Z,74.48
2019-05-18T05:05:10.213Z,74.29
2019-05-18T05:07:38.685Z,74.43
2019-05-18T05:10:07.250Z,74.38
2019-05-18T05:12:35.788Z,74.35
2019-05-18T05:15:04.682Z,74.39
2019-05-18T05:17:33.185Z,74.34
2019-05-18T05:20:01.682Z,74.49
2019-05-18T05:22:30.547Z,74.49
2019-05-18T05:24:59.050Z,74.66
2019-05-18T05:27:27.550Z,74.49
2019-05-18T05:29:56.029Z,74.65
2019-05-18T05:32:24.531Z,74.46
2019-05-18T05:34:53.366Z,74.51
2019-05-18T05:37:21.856Z,74.55
2019-05-18T05:39:50.386Z,74.44
2019-05-18T05:42:18.924Z,74.36
2019-05-18T05:44:47.425Z,74.35
2019-05-18T05:47:15.907Z,74.35
2019-05-18T05:49:44.410Z,74.58
2019-05-18T05:52:12.928Z,74.58
2019-05-18T05:54:41.428Z,74.61
2019-05-18T05:57:09.934Z,74.60
2019-05-18T05:59:38.438Z,74.65
2019-05-18T06:02:06.931Z,74.56
2019-05-18T06:04:35.432Z,74.47
2019-05-18T06:07:03.915Z,74.44
2019-05-18T06:09:32.736Z,74.49
2019-05-18T06:12:01.228Z,74.59
2019-05-18T06:14:29.760Z,74.56
2019-05-18T06:16:58.268Z,74.47
2019-05-18T06:19:26.768Z,74.54
2019-05-18T06:21:55.256Z,74.37
2019-05-18T06:24:23.751Z,74.57
2019-05-18T06:26:52.269Z,74.50
2019-05-18T06:29:21.178Z,74.54
2019-05-18T06:31:49.668Z,74.45
2019-05-18T06:34:18.141Z,74.43
2019-05-18T06:36:46.748Z,74.40
2019-05-18T06:39:15.289Z,74.48
2019-05-18T06:41:43.793Z,74.34
2019-05-18T06:44:12.307Z,74.38
2019-05-18T06:46:53.750Z,74.38
2019-05-18T06:49:22.211Z,74.38
2019-05-18T06:51:50.706Z,74.32
2019-05-18T06:54:19.216Z,74.31
2019-05-18T06:56:47.721Z,74.31
2019-05-18T06:59:16.611Z,74.29
2019-05-18T07:01:45.069Z,74.37
2019-05-18T07:04:13.549Z,74.16
2019-05-18T07:06:42.099Z,74.06
2019-05-18T07:09:14.147Z,74.11
2019-05-18T07:11:40.844Z,74.29
2019-05-18T07:14:09.606Z,74.25
2019-05-18T07:16:38.405Z,74.15
2019-05-18T07:19:06.887Z,74.08
2019-05-18T07:21:35.385Z,74.10
2019-05-18T07:24:04.183Z,74.07
2019-05-18T07:26:32.709Z,74.00
2019-05-18T07:29:05.529Z,73.82
2019-05-18T07:31:31.747Z,73.46
2019-05-18T07:34:00.260Z,73.42
2019-05-18T07:36:28.761Z,73.31
2019-05-18T07:38:57.366Z,73.17
2019-05-18T07:41:25.852Z,73.29
2019-05-18T07:43:54.373Z,73.31
2019-05-18T07:46:22.980Z,73.28
2019-05-18T07:48:51.448Z,73.07
2019-05-18T07:51:19.955Z,73.17
2019-05-18T07:53:48.438Z,73.29
2019-05-18T07:56:16.934Z,73.42
2019-05-18T07:58:45.416Z,73.23
2019-05-18T08:01:13.935Z,73.04
2019-05-18T08:03:42.788Z,73.04
2019-05-18T08:06:11.265Z,72.95
2019-05-18T08:08:39.977Z,72.73
2019-05-18T08:11:08.491Z,72.23
2019-05-18T08:13:37.228Z,72.27
2019-05-18T08:16:05.758Z,72.02
2019-05-18T08:18:34.502Z,72.31
2019-05-18T08:21:03.128Z,72.14
2019-05-18T08:23:31.649Z,71.89
2019-05-18T08:26:00.515Z,71.97
2019-05-18T08:28:29.014Z,71.92
2019-05-18T08:30:57.512Z,71.81
2019-05-18T08:33:25.994Z,71.93
2019-05-18T08:35:54.480Z,71.92
2019-05-18T08:38:23.022Z,71.84
2019-05-18T08:40:51.540Z,71.53
2019-05-18T08:43:20.016Z,71.32
2019-05-18T08:45:48.589Z,71.52
2019-05-18T08:48:17.072Z,71.38
2019-05-18T08:50:45.594Z,70.65
2019-05-18T08:53:14.116Z,70.64
2019-05-18T08:55:42.632Z,70.81
2019-05-18T08:58:12.766Z,70.78
2019-05-18T09:00:41.178Z,70.20
2019-05-18T09:03:09.762Z,70.60
2019-05-18T09:05:38.273Z,71.04
2019-05-18T09:08:06.755Z,70.27
2019-05-18T09:10:35.227Z,70.43
2019-05-18T09:13:03.715Z,70.29
2019-05-18T09:15:32.219Z,70.32
2019-05-18T09:18:00.708Z,70.17
2019-05-18T09:20:29.268Z,70.37
2019-05-18T09:22:57.764Z,70.05
2019-05-18T09:25:26.269Z,70.02
2019-05-18T09:27:54.744Z,69.73
2019-05-18T09:30:23.278Z,69.68
2019-05-18T09:32:51.788Z,69.14
2019-05-18T09:35:20.299Z,68.86
2019-05-18T09:37:48.744Z,69.15
2019-05-18T09:40:17.240Z,69.31
2019-05-18T09:42:46.062Z,69.52
2019-05-18T09:45:14.546Z,69.24
2019-05-18T09:47:43.021Z,69.06
2019-05-18T09:50:11.523Z,68.76
2019-05-18T09:52:45.420Z,68.10
2019-05-18T09:55:10.267Z,67.92
2019-05-18T09:57:38.831Z,67.83
2019-05-18T10:00:07.703Z,67.34
2019-05-18T10:02:36.179Z,67.47
2019-05-18T10:05:05.410Z,66.62
2019-05-18T10:07:33.860Z,67.22
2019-05-18T10:10:02.356Z,67.80
2019-05-18T10:12:30.880Z,67.80
2019-05-18T10:14:59.402Z,66.97
2019-05-18T10:17:27.898Z,66.97
2019-05-18T10:19:56.396Z,67.10
2019-05-18T10:22:24.916Z,66.71
2019-05-18T10:24:53.425Z,66.64
2019-05-18T10:27:21.993Z,66.54
2019-05-18T10:29:50.507Z,66.35
2019-05-18T10:32:18.999Z,65.58
2019-05-18T10:34:47.560Z,65.22
2019-05-18T10:37:16.041Z,65.78
2019-05-18T10:39:44.532Z,66.22
2019-05-18T10:42:13.364Z,65.69
2019-05-18T10:44:41.879Z,65.77
2019-05-18T10:47:10.939Z,64.89
2019-05-18T10:49:39.467Z,64.90
2019-05-18T10:52:07.962Z,65.23
2019-05-18T10:54:36.485Z,64.70
2019-05-18T10:57:04.933Z,64.58
2019-05-18T10:59:33.649Z,64.78
2019-05-18T11:02:02.436Z,64.71
2019-05-18T11:04:31.107Z,64.80
2019-05-18T11:06:59.607Z,64.49
2019-05-18T11:09:28.091Z,64.20
2019-05-18T11:11:56.607Z,64.35
2019-05-18T11:14:25.080Z,64.33
2019-05-18T11:16:53.847Z,64.56
2019-05-18T11:19:22.346Z,64.54
2019-05-18T11:21:50.823Z,64.14
2019-05-18T11:24:19.324Z,64.14
2019-05-18T11:26:48.181Z,63.66
2019-05-18T11:29:16.695Z,63.38
2019-05-18T11:31:45.219Z,63.63
2019-05-18T11:34:13.732Z,63.57
2019-05-18T11:36:42.192Z,63.28
2019-05-18T11:39:10.713Z,61.94
2019-05-18T11:41:39.194Z,62.01
2019-05-18T11:44:10.669Z,61.50
2019-05-18T11:46:38.168Z,61.80
2019-05-18T11:49:06.685Z,61.67
2019-05-18T11:51:35.188Z,61.88
2019-05-18T11:54:03.729Z,62.15
2019-05-18T11:56:32.223Z,61.54
2019-05-18T11:59:00.723Z,61.24
2019-05-18T12:01:29.273Z,61.24
2019-05-18T12:03:57.771Z,61.31
2019-05-18T12:06:26.555Z,61.50
2019-05-18T12:08:58.514Z,61.11
2019-05-18T12:11:25.514Z,61.10
2019-05-18T12:13:54.000Z,60.58
2019-05-18T12:16:22.493Z,60.64
2019-05-18T12:18:50.970Z,60.42
2019-05-18T12:21:19.464Z,60.12
2019-05-18T12:23:47.933Z,60.43
2019-05-18T12:26:16.636Z,59.40
2019-05-18T12:28:45.115Z,58.75
2019-05-18T12:31:13.618Z,58.81
2019-05-18T12:33:42.380Z,58.25
2019-05-18T12:36:10.846Z,58.18
2019-05-18T12:38:39.338Z,58.17
2019-05-18T12:41:07.821Z,58.32
2019-05-18T12:43:36.325Z,58.56
2019-05-18T12:46:04.822Z,58.13
2019-05-18T12:48:33.282Z,56.97
2019-05-18T12:51:01.802Z,57.23
2019-05-18T12:53:30.280Z,55.76
2019-05-18T12:55:58.772Z,55.56
2019-05-18T12:58:27.241Z,55.71
2019-05-18T13:00:55.973Z,55.33
2019-05-18T13:03:24.454Z,54.45
2019-05-18T13:05:52.922Z,54.72
2019-05-18T13:08:21.393Z,55.01
2019-05-18T13:10:49.895Z,54.44
2019-05-18T13:13:18.378Z,53.77
2019-05-18T13:15:46.852Z,53.86
2019-05-18T13:18:15.322Z,53.24
2019-05-18T13:20:43.826Z,52.97
2019-05-18T13:23:12.542Z,52.31
2019-05-18T13:25:41.040Z,51.71
2019-05-18T13:28:09.633Z,51.66
2019-05-18T13:30:38.117Z,51.53
2019-05-18T13:33:06.607Z,50.85
2019-05-18T13:35:35.483Z,51.18
2019-05-18T13:38:03.971Z,50.58
2019-05-18T13:40:32.791Z,50.81
2019-05-18T13:43:01.263Z,51.53
2019-05-18T13:45:29.757Z,51.59
2019-05-18T13:47:58.293Z,51.31
2019-05-18T13:50:26.757Z,50.48
2019-05-18T13:52:55.284Z,49.95
2019-05-18T13:55:23.751Z,49.68
2019-05-18T13:57:52.266Z,50.17
2019-05-18T14:00:22.345Z,50.61
2019-05-18T14:02:50.833Z,50.42
2019-05-18T14:05:19.315Z,50.35
2019-05-18T14:07:47.806Z,49.70
2019-05-18T14:10:16.315Z,49.83
2019-05-18T14:12:44.818Z,49.97
2019-05-18T14:15:13.296Z,49.93
2019-05-18T14:17:41.768Z,49.02
2019-05-18T14:20:12.194Z,48.73
2019-05-18T14:22:40.626Z,48.13
2019-05-18T14:25:18.717Z,48.48
2019-05-18T14:27:39.423Z,48.56
2019-05-18T14:30:08.012Z,48.38
2019-05-18T14:32:36.502Z,48.17
2019-05-18T14:35:05.529Z,47.67
2019-05-18T14:37:33.994Z,47.67
2019-05-18T14:40:02.491Z,47.17
2019-05-18T14:42:31.001Z,47.96
2019-05-18T14:44:59.503Z,48.65
2019-05-18T14:47:27.981Z,49.70
2019-05-18T14:49:56.731Z,50.67
2019-05-18T14:52:25.227Z,51.26
2019-05-18T14:54:53.734Z,51.54
2019-05-18T14:57:25.449Z,51.47
2019-05-18T14:59:52.596Z,51.66
2019-05-18T15:02:21.438Z,51.72
2019-05-18T15:04:53.371Z,51.81
2019-05-18T15:07:20.431Z,51.69
2019-05-18T15:09:49.206Z,51.66
2019-05-18T15:12:17.721Z,51.63
2019-05-18T15:14:46.429Z,51.83
2019-05-18T15:17:15.019Z,51.84
2019-05-18T15:19:43.515Z,51.59
2019-05-18T15:22:12.031Z,51.77
2019-05-18T15:24:40.501Z,51.65
2019-05-18T15:27:08.995Z,51.73
2019-05-18T15:29:37.762Z,51.98
2019-05-18T15:32:06.273Z,52.09
2019-05-18T15:34:35.328Z,52.08
2019-05-18T15:37:04.424Z,51.86
2019-05-18T15:39:33.205Z,51.74
2019-05-18T15:42:01.717Z,51.47
2019-05-18T15:44:30.204Z,51.32
2019-05-18T15:46:58.690Z,51.40
2019-05-18T15:49:27.186Z,51.59
2019-05-18T15:51:56.041Z,51.52
2019-05-18T15:54:24.523Z,51.26
2019-05-18T15:56:53.094Z,51.03
2019-05-18T15:59:21.609Z,51.17
2019-05-18T16:01:50.102Z,50.91
2019-05-18T16:04:18.636Z,50.37
2019-05-18T16:06:47.164Z,50.22
2019-05-18T16:09:16.728Z,49.93
2019-05-18T16:11:45.225Z,49.79
2019-05-18T16:14:13.992Z,49.65
2019-05-18T16:16:42.476Z,49.63
2019-05-18T16:19:11.068Z,49.54
2019-05-18T16:21:39.854Z,49.34
2019-05-18T16:24:08.358Z,49.32
2019-05-18T16:26:36.840Z,49.31
2019-05-18T16:29:05.321Z,49.26
2019-05-18T16:31:33.801Z,49.32
2019-05-18T16:34:02.411Z,49.33
2019-05-18T16:36:30.890Z,49.22
2019-05-18T16:38:59.381Z,49.25
2019-05-18T16:41:27.916Z,49.14
2019-05-18T16:43:56.495Z,49.04
2019-05-18T16:46:25.006Z,48.99
2019-05-18T16:48:53.558Z,49.05
2019-05-18T16:51:22.069Z,48.88
2019-05-18T16:53:50.623Z,48.81
2019-05-18T16:56:19.119Z,49.08
2019-05-18T16:58:47.629Z,49.33
2019-05-18T17:01:16.138Z,49.59
2019-05-18T17:03:44.617Z,49.96
2019-05-18T17:06:16.288Z,50.33
2019-05-18T17:08:43.352Z,50.72
2019-05-18T17:11:11.845Z,50.87
2019-05-18T17:13:40.342Z,50.93
2019-05-18T17:16:08.882Z,51.09
2019-05-18T17:18:37.364Z,51.15
2019-05-18T17:21:05.887Z,51.29
2019-05-18T17:23:34.420Z,51.32
2019-05-18T17:26:02.908Z,51.35
2019-05-18T17:28:31.403Z,51.42
2019-05-18T17:30:59.910Z,51.55
2019-05-18T17:33:28.383Z,51.53
2019-05-18T17:36:00.416Z,51.59
2019-05-18T17:38:27.116Z,51.58
2019-05-18T17:40:55.650Z,51.55
2019-05-18T17:43:24.432Z,51.74
2019-05-18T17:45:52.934Z,51.57
2019-05-18T17:48:21.443Z,51.71
2019-05-18T17:50:49.984Z,51.86
2019-05-18T17:53:20.517Z,52.06
2019-05-18T17:55:48.905Z,52.12
2019-05-18T17:58:19.555Z,52.30
2019-05-18T18:00:48.122Z,52.41
2019-05-18T18:03:16.717Z,52.69
2019-05-18T18:05:45.273Z,52.83
2019-05-18T18:08:16.587Z,52.89
2019-05-18T18:10:45.794Z,53.11
2019-05-18T18:13:14.301Z,53.31
2019-05-18T18:15:42.885Z,53.49
2019-05-18T18:18:11.383Z,53.81
2019-05-18T18:20:39.976Z,53.72
2019-05-18T18:23:08.460Z,53.96
2019-05-18T18:25:37.334Z,54.17
2019-05-18T18:28:06.174Z,54.26
2019-05-18T18:30:34.704Z,54.54
2019-05-18T18:33:03.203Z,54.81
2019-05-18T18:35:32.045Z,54.96
2019-05-18T18:38:00.545Z,55.04
2019-05-18T18:40:29.050Z,55.09
2019-05-18T18:42:57.549Z,55.32
2019-05-18T18:45:26.062Z,55.42
2019-05-18T18:47:54.625Z,55.31
2019-05-18T18:50:23.150Z,55.48
2019-05-18T18:52:51.658Z,55.83
2019-05-18T18:55:20.182Z,55.90
2019-05-18T18:57:48.672Z,56.03
2019-05-18T19:00:17.176Z,56.23
2019-05-18T19:02:45.669Z,56.25
2019-05-18T19:05:14.219Z,56.59
2019-05-18T19:07:42.738Z,56.62
2019-05-18T19:10:11.253Z,56.93
2019-05-18T19:12:40.069Z,56.90
2019-05-18T19:15:08.675Z,57.21
2019-05-18T19:17:37.176Z,57.21
2019-05-18T19:20:06.048Z,57.30
2019-05-18T19:22:34.553Z,57.30
2019-05-18T19:25:03.087Z,57.30
2019-05-18T19:27:31.569Z,57.46
2019-05-18T19:30:00.086Z,57.61
2019-05-18T19:32:28.619Z,57.61
2019-05-18T19:34:57.123Z,57.82
2019-05-18T19:37:26.517Z,57.84
2019-05-18T19:39:55.212Z,57.91
2019-05-18T19:42:23.727Z,57.89
2019-05-18T19:44:52.235Z,58.04
2019-05-18T19:47:20.830Z,58.19
2019-05-18T19:49:49.372Z,58.26
2019-05-18T19:52:17.911Z,58.30
2019-05-18T19:54:46.448Z,58.58
2019-05-18T19:57:14.974Z,58.54
2019-05-18T19:59:43.461Z,58.63
2019-05-18T20:02:11.959Z,58.60
2019-05-18T20:04:40.464Z,58.83
2019-05-18T20:07:08.960Z,58.98
2019-05-18T20:09:37.488Z,59.13
2019-05-18T20:12:06.016Z,59.18
2019-05-18T20:14:34.793Z,59.23
2019-05-18T20:17:03.315Z,59.36
2019-05-18T20:19:39.369Z,59.50
2019-05-18T20:22:02.073Z,59.51
2019-05-18T20:24:30.541Z,59.65
2019-05-18T20:26:59.089Z,59.62
2019-05-18T20:29:28.001Z,59.72
2019-05-18T20:31:56.502Z,59.91
2019-05-18T20:34:25.080Z,59.92
2019-05-18T20:36:53.622Z,59.91
2019-05-18T20:39:22.204Z,60.07
2019-05-18T20:41:50.722Z,60.16
2019-05-18T20:44:19.224Z,60.20
2019-05-18T20:46:47.745Z,60.21
2019-05-18T20:49:16.597Z,60.38
2019-05-18T20:51:45.100Z,60.36
2019-05-18T20:54:13.601Z,60.40
2019-05-18T20:56:42.411Z,60.34
2019-05-18T20:59:11.029Z,60.51
2019-05-18T21:01:39.531Z,60.75
2019-05-18T21:04:08.055Z,60.82
2019-05-18T21:06:36.595Z,60.93
2019-05-18T21:09:05.798Z,60.94
2019-05-18T21:11:34.273Z,60.99
2019-05-18T21:14:02.804Z,61.07
2019-05-18T21:16:31.312Z,61.13
2019-05-18T21:18:59.816Z,61.14
2019-05-18T21:21:28.336Z,61.27
2019-05-18T21:23:56.827Z,61.47
2019-05-18T21:26:25.567Z,61.73
2019-05-18T21:28:59.403Z,61.75
2019-05-18T21:31:24.351Z,61.73
2019-05-18T21:33:52.860Z,61.71
2019-05-18T21:36:21.340Z,61.79
2019-05-18T21:38:49.860Z,61.86
2019-05-18T21:41:18.647Z,61.83
2019-05-18T21:43:47.169Z,61.98
2019-05-18T21:46:15.674Z,62.09
2019-05-18T21:48:44.195Z,62.35
2019-05-18T21:51:13.124Z,62.44
2019-05-18T21:53:41.622Z,62.22
2019-05-18T21:56:10.105Z,62.29
2019-05-18T21:58:38.598Z,62.26
2019-05-18T22:01:07.093Z,62.40
2019-05-18T22:03:35.618Z,62.43
2019-05-18T22:06:04.481Z,62.61
2019-05-18T22:08:32.918Z,62.71
2019-05-18T22:11:01.451Z,62.86
2019-05-18T22:13:29.963Z,62.87
2019-05-18T22:15:58.460Z,63.04
2019-05-18T22:18:27.041Z,63.07
2019-05-18T22:20:55.608Z,63.11
2019-05-18T22:23:24.298Z,63.29
2019-05-18T22:25:56.689Z,63.46
2019-05-18T22:28:23.335Z,63.59
2019-05-18T22:30:51.881Z,63.69
2019-05-18T22:33:20.744Z,63.70
2019-05-18T22:35:49.547Z,63.63
2019-05-18T22:38:19.252Z,63.81
2019-05-18T22:40:47.944Z,63.93
2019-05-18T22:43:16.661Z,64.18
2019-05-18T22:45:45.275Z,64.32
2019-05-18T22:48:15.771Z,64.30
2019-05-18T22:50:44.407Z,64.40
2019-05-18T22:53:12.976Z,64.25
2019-05-18T22:55:41.490Z,64.19
2019-05-18T22:58:12.659Z,64.31
2019-05-18T23:00:42.103Z,64.38
2019-05-18T23:03:10.555Z,64.58
2019-05-18T23:05:40.931Z,64.66
2019-05-18T23:08:09.453Z,64.86
2019-05-18T23:10:38.217Z,65.11
2019-05-18T23:13:09.891Z,65.26
2019-05-18T23:15:38.413Z,65.28
2019-05-18T23:18:07.267Z,65.40
2019-05-18T23:20:35.808Z,65.39
2019-05-18T23:23:07.690Z,65.73
2019-05-18T23:25:36.228Z,65.90
2019-05-18T23:28:04.781Z,65.82
2019-05-18T23:30:33.351Z,65.78
2019-05-18T23:33:01.892Z,65.89
2019-05-18T23:35:30.434Z,65.88
2019-05-18T23:37:59.015Z,65.92
2019-05-18T23:40:27.545Z,65.92
2019-05-18T23:42:55.987Z,66.04
2019-05-18T23:45:25.057Z,66.14
2019-05-18T23:47:53.827Z,66.23
2019-05-18T23:50:22.335Z,66.23
2019-05-18T23:52:50.906Z,66.40
2019-05-18T23:55:19.626Z,66.51
2019-05-18T23:57:48.191Z,66.60
